createdAt,value
2019-06-27T00:00:38.289Z,2.93
2019-06-27T00:03:07.911Z,3.60
2019-06-27T00:05:37.403Z,3.83
2019-06-27T00:08:06.889Z,4.30
2019-06-27T00:10:36.450Z,2.87
2019-06-27T00:13:05.914Z,3.13
2019-06-27T00:15:35.480Z,5.47
2019-06-27T00:18:04.973Z,4.50
2019-06-27T00:20:34.468Z,4.53
2019-06-27T00:23:03.964Z,5.53
2019-06-27T00:25:52.806Z,3.33
2019-06-27T00:28:22.295Z,4.67
2019-06-27T00:30:51.828Z,2.43
2019-06-27T00:33:21.317Z,3.60
2019-06-27T00:35:50.850Z,3.37
2019-06-27T00:38:20.361Z,3.23
2019-06-27T00:40:49.830Z,4.70
2019-06-27T00:43:19.374Z,5.13
2019-06-27T00:45:48.861Z,4.53
2019-06-27T00:48:37.682Z,3.40
2019-06-27T00:51:07.184Z,4.03
2019-06-27T00:53:56.019Z,4.40
2019-06-27T00:56:25.561Z,3.80
2019-06-27T00:58:55.032Z,3.67
2019-06-27T01:01:24.517Z,4.47
2019-06-27T01:03:53.992Z,3.70
2019-06-27T01:06:23.455Z,4.57
2019-06-27T01:08:52.944Z,5.20
2019-06-27T01:11:22.416Z,3.60
2019-06-27T01:13:51.909Z,3.67
2019-06-27T01:16:21.400Z,3.30
2019-06-27T01:18:50.859Z,3.90
2019-06-27T01:21:20.363Z,3.77
2019-06-27T01:23:49.897Z,3.07
2019-06-27T01:26:19.380Z,3.80
2019-06-27T01:28:48.879Z,2.93
2019-06-27T01:31:18.418Z,3.60
2019-06-27T01:33:47.909Z,3.53
2019-06-27T01:36:17.478Z,3.77
2019-06-27T01:38:46.962Z,4.47
2019-06-27T01:41:16.462Z,3.47
2019-06-27T01:43:45.938Z,4.97
2019-06-27T01:46:15.417Z,2.87
2019-06-27T01:48:44.921Z,2.27
2019-06-27T01:51:14.383Z,4.20
2019-06-27T01:53:43.884Z,3.80
2019-06-27T01:56:13.346Z,2.83
2019-06-27T01:58:42.848Z,3.50
2019-06-27T02:01:12.387Z,3.60
2019-06-27T02:03:41.977Z,4.67
2019-06-27T02:06:11.562Z,2.03
2019-06-27T02:08:41.033Z,4.97
2019-06-27T02:11:10.527Z,3.60
2019-06-27T02:13:40.034Z,2.63
2019-06-27T02:16:09.508Z,9.53
2019-06-27T02:18:38.992Z,2.67
2019-06-27T02:21:08.532Z,3.00
2019-06-27T02:23:38.054Z,3.40
2019-06-27T02:26:07.498Z,3.80
2019-06-27T02:28:36.964Z,3.47
2019-06-27T02:31:06.529Z,2.90
2019-06-27T02:33:36.010Z,5.67
2019-06-27T02:36:05.478Z,5.00
2019-06-27T02:38:34.981Z,3.23
2019-06-27T02:41:04.482Z,3.27
2019-06-27T02:43:34.179Z,3.83
2019-06-27T02:46:03.651Z,4.07
2019-06-27T02:48:33.203Z,4.13
2019-06-27T02:51:02.667Z,3.97
2019-06-27T02:53:32.154Z,4.47
2019-06-27T02:56:01.654Z,4.43
2019-06-27T02:58:32.527Z,2.43
2019-06-27T03:01:02.297Z,5.30
2019-06-27T03:03:31.803Z,3.13
2019-06-27T03:06:01.329Z,4.50
2019-06-27T03:08:30.818Z,4.20
2019-06-27T03:11:06.340Z,2.90
2019-06-27T03:13:35.839Z,3.27
2019-06-27T03:16:05.391Z,3.50
2019-06-27T03:18:34.862Z,2.90
2019-06-27T03:21:04.337Z,3.70
2019-06-27T03:23:33.830Z,6.17
2019-06-27T03:26:03.302Z,4.73
2019-06-27T03:28:51.070Z,3.20
2019-06-27T03:31:04.116Z,4.80
2019-06-27T03:33:33.615Z,2.43
2019-06-27T03:36:03.218Z,3.77
2019-06-27T03:38:33.114Z,3.57
2019-06-27T03:41:02.589Z,3.90
2019-06-27T03:43:32.085Z,3.03
2019-06-27T03:46:01.554Z,3.60
2019-06-27T03:48:31.125Z,4.47
2019-06-27T03:51:00.823Z,3.53
2019-06-27T03:53:30.306Z,4.00
2019-06-27T03:56:01.424Z,3.57
2019-06-27T03:58:30.921Z,4.50
2019-06-27T04:01:00.506Z,6.33
2019-06-27T04:03:30.079Z,5.07
2019-06-27T04:05:59.579Z,2.93
2019-06-27T04:08:29.120Z,3.50
2019-06-27T04:11:00.201Z,3.13
2019-06-27T04:13:29.688Z,4.80
2019-06-27T04:15:59.181Z,6.00
2019-06-27T04:18:28.717Z,4.20
2019-06-27T04:20:58.282Z,4.60
2019-06-27T04:23:27.933Z,3.90
2019-06-27T04:25:57.506Z,4.23
2019-06-27T04:28:26.982Z,4.43
2019-06-27T04:30:56.518Z,4.30
2019-06-27T04:33:26.090Z,3.90
2019-06-27T04:35:55.759Z,7.23
2019-06-27T04:38:25.327Z,4.93
2019-06-27T04:40:54.836Z,5.00
2019-06-27T04:43:24.346Z,6.80
2019-06-27T04:45:53.974Z,6.00
2019-06-27T04:48:23.475Z,6.40
2019-06-27T04:50:52.944Z,7.13
2019-06-27T04:53:22.527Z,6.20
2019-06-27T04:55:51.992Z,7.17
2019-06-27T04:58:21.571Z,4.87
2019-06-27T05:00:51.196Z,7.87
2019-06-27T05:03:20.754Z,5.30
2019-06-27T05:05:50.242Z,6.27
2019-06-27T05:08:19.812Z,6.40
2019-06-27T05:10:49.298Z,7.37
2019-06-27T05:13:18.794Z,7.13
2019-06-27T05:15:48.341Z,5.73
2019-06-27T05:18:17.832Z,6.10
2019-06-27T05:20:47.319Z,7.23
2019-06-27T05:23:16.807Z,7.83
2019-06-27T05:25:46.348Z,6.83
2019-06-27T05:28:15.821Z,6.37
2019-06-27T05:30:45.313Z,6.27
2019-06-27T05:33:15.074Z,8.07
2019-06-27T05:35:44.560Z,7.23
2019-06-27T05:38:14.108Z,7.03
2019-06-27T05:40:43.581Z,8.83
2019-06-27T05:43:13.741Z,7.27
2019-06-27T05:45:43.577Z,7.77
2019-06-27T05:48:13.043Z,8.50
2019-06-27T05:50:42.527Z,7.87
2019-06-27T05:53:12.268Z,7.87
2019-06-27T05:55:41.884Z,7.23
2019-06-27T05:58:11.352Z,6.87
2019-06-27T06:00:40.903Z,6.50
2019-06-27T06:03:10.369Z,6.27
2019-06-27T06:05:39.852Z,7.93
2019-06-27T06:08:09.411Z,7.20
2019-06-27T06:10:38.911Z,6.00
2019-06-27T06:13:08.379Z,6.97
2019-06-27T06:15:37.950Z,7.17
2019-06-27T06:18:08.492Z,7.37
2019-06-27T06:20:37.948Z,6.13
2019-06-27T06:23:08.747Z,6.60
2019-06-27T06:25:38.244Z,8.17
2019-06-27T06:28:07.816Z,7.13
2019-06-27T06:30:44.210Z,6.77
2019-06-27T06:33:08.562Z,5.37
2019-06-27T06:35:38.129Z,4.23
2019-06-27T06:38:07.596Z,5.10
2019-06-27T06:40:37.106Z,4.37
2019-06-27T06:43:06.655Z,4.50
2019-06-27T06:45:36.139Z,4.80
2019-06-27T06:48:05.670Z,4.57
2019-06-27T06:50:35.125Z,3.73
2019-06-27T06:53:04.624Z,4.60
2019-06-27T06:55:34.178Z,3.50
2019-06-27T06:58:03.682Z,3.87
2019-06-27T07:00:33.216Z,3.07
2019-06-27T07:03:02.742Z,4.47
2019-06-27T07:05:32.204Z,4.53
2019-06-27T07:08:01.722Z,4.17
2019-06-27T07:10:31.227Z,4.20
2019-06-27T07:13:00.656Z,4.30
2019-06-27T07:15:30.202Z,3.00
2019-06-27T07:17:59.827Z,5.27
2019-06-27T07:20:29.315Z,3.57
2019-06-27T07:22:59.061Z,4.97
2019-06-27T07:25:28.609Z,4.00
2019-06-27T07:27:58.106Z,3.40
2019-06-27T07:30:27.577Z,2.97
2019-06-27T07:32:57.196Z,4.27
2019-06-27T07:35:26.795Z,2.57
2019-06-27T07:37:56.264Z,2.63
2019-06-27T07:40:25.759Z,4.47
2019-06-27T07:42:55.227Z,4.03
2019-06-27T07:45:24.794Z,4.43
2019-06-27T07:47:54.279Z,4.07
2019-06-27T07:50:23.801Z,4.17
2019-06-27T07:52:53.303Z,5.13
2019-06-27T07:55:24.534Z,3.73
2019-06-27T07:57:54.054Z,3.33
2019-06-27T08:00:24.857Z,3.93
2019-06-27T08:02:54.343Z,4.03
2019-06-27T08:05:23.980Z,3.50
2019-06-27T08:07:53.504Z,2.37
2019-06-27T08:10:23.061Z,2.53
2019-06-27T08:12:52.544Z,2.83
2019-06-27T08:15:22.181Z,3.97
2019-06-27T08:17:51.648Z,3.50
2019-06-27T08:20:21.459Z,2.63
2019-06-27T08:22:50.913Z,3.17
2019-06-27T08:25:20.802Z,3.33
2019-06-27T08:27:50.293Z,2.00
2019-06-27T08:30:20.042Z,4.83
2019-06-27T08:32:49.519Z,3.37
2019-06-27T08:35:19.071Z,2.17
2019-06-27T08:37:48.763Z,3.10
2019-06-27T08:40:19.273Z,1.80
2019-06-27T08:42:48.794Z,2.63
2019-06-27T08:45:18.342Z,2.20
2019-06-27T08:47:47.803Z,2.87
2019-06-27T08:50:19.294Z,2.30
2019-06-27T08:52:48.845Z,2.33
2019-06-27T08:55:18.398Z,2.13
2019-06-27T08:57:47.916Z,1.60
2019-06-27T09:00:17.888Z,2.07
2019-06-27T09:02:47.345Z,2.97
2019-06-27T09:05:17.184Z,1.80
2019-06-27T09:07:46.689Z,2.77
2019-06-27T09:10:17.290Z,3.23
2019-06-27T09:12:46.918Z,3.33
2019-06-27T09:15:16.937Z,1.67
2019-06-27T09:17:46.472Z,2.47
2019-06-27T09:20:16.911Z,2.63
2019-06-27T09:22:46.465Z,1.80
2019-06-27T09:25:16.130Z,2.33
2019-06-27T09:27:45.820Z,2.60
2019-06-27T09:30:16.398Z,3.73
2019-06-27T09:32:45.877Z,3.13
2019-06-27T09:35:16.583Z,1.70
2019-06-27T09:37:47.027Z,3.50
2019-06-27T09:40:16.875Z,1.97
2019-06-27T09:42:46.370Z,1.90
2019-06-27T09:45:17.840Z,1.53
2019-06-27T09:47:47.309Z,1.93
2019-06-27T09:50:20.600Z,2.83
2019-06-27T09:52:48.416Z,3.10
2019-06-27T09:55:18.113Z,2.60
2019-06-27T09:57:47.664Z,3.90
2019-06-27T10:00:17.733Z,2.70
2019-06-27T10:02:59.736Z,2.10
2019-06-27T10:05:29.240Z,1.40
2019-06-27T10:07:58.725Z,1.93
2019-06-27T10:10:28.190Z,2.33
2019-06-27T10:12:58.253Z,2.03
2019-06-27T10:15:27.729Z,2.80
2019-06-27T10:17:57.223Z,1.97
2019-06-27T10:20:26.763Z,3.13
2019-06-27T10:22:56.224Z,2.37
2019-06-27T10:25:25.910Z,2.87
2019-06-27T10:27:55.378Z,1.93
2019-06-27T10:30:25.980Z,3.20
2019-06-27T10:32:59.785Z,3.53
2019-06-27T10:35:26.740Z,2.57
2019-06-27T10:37:56.198Z,2.77
2019-06-27T10:40:25.854Z,1.83
2019-06-27T10:42:55.402Z,1.60
2019-06-27T10:45:25.000Z,2.07
2019-06-27T10:47:54.545Z,2.50
2019-06-27T10:50:24.090Z,3.17
2019-06-27T10:52:53.635Z,2.13
2019-06-27T10:55:23.201Z,3.10
2019-06-27T10:57:52.670Z,2.90
2019-06-27T11:00:23.107Z,3.80
2019-06-27T11:02:52.572Z,3.37
2019-06-27T11:05:22.130Z,2.77
2019-06-27T11:07:51.690Z,3.40
2019-06-27T11:10:21.242Z,3.13
2019-06-27T11:12:50.824Z,2.10
2019-06-27T11:15:20.506Z,3.13
2019-06-27T11:17:50.022Z,3.70
2019-06-27T11:20:19.815Z,2.60
2019-06-27T11:22:49.283Z,3.03
2019-06-27T11:25:18.890Z,3.40
2019-06-27T11:27:48.415Z,2.57
2019-06-27T11:30:18.212Z,3.03
2019-06-27T11:32:47.697Z,2.93
2019-06-27T11:35:17.234Z,3.43
2019-06-27T11:37:46.749Z,3.00
2019-06-27T11:40:17.209Z,2.53
2019-06-27T11:42:46.714Z,2.17
2019-06-27T11:45:16.603Z,3.20
2019-06-27T11:47:46.212Z,3.43
2019-06-27T11:50:16.035Z,4.33
2019-06-27T11:52:47.239Z,5.70
2019-06-27T11:55:17.231Z,4.03
2019-06-27T11:57:46.783Z,4.80
2019-06-27T12:00:16.595Z,3.93
2019-06-27T12:02:46.232Z,3.43
2019-06-27T12:05:15.848Z,2.43
2019-06-27T12:07:45.346Z,2.90
2019-06-27T12:10:15.547Z,2.27
2019-06-27T12:12:45.055Z,3.47
2019-06-27T12:15:14.778Z,5.03
2019-06-27T12:17:44.310Z,2.03
2019-06-27T12:20:15.399Z,3.03
2019-06-27T12:22:44.866Z,2.00
2019-06-27T12:25:14.579Z,2.23
2019-06-27T12:27:44.115Z,2.10
2019-06-27T12:30:13.841Z,3.03
2019-06-27T12:32:51.766Z,3.03
2019-06-27T12:35:14.800Z,2.07
2019-06-27T12:37:44.318Z,1.70
2019-06-27T12:40:14.734Z,2.17
2019-06-27T12:42:44.237Z,3.43
2019-06-27T12:45:13.946Z,1.93
2019-06-27T12:47:43.566Z,7.10
2019-06-27T12:50:13.269Z,3.40
2019-06-27T12:52:42.804Z,1.83
2019-06-27T12:55:12.515Z,1.93
2019-06-27T12:57:42.085Z,3.80
2019-06-27T13:00:13.701Z,2.07
2019-06-27T13:03:02.552Z,1.97
2019-06-27T13:05:32.027Z,2.87
2019-06-27T13:08:01.532Z,3.13
2019-06-27T13:10:37.284Z,3.27
2019-06-27T13:13:06.847Z,2.87
2019-06-27T13:15:36.341Z,1.87
2019-06-27T13:18:05.828Z,2.93
2019-06-27T13:20:35.314Z,3.43
2019-06-27T13:23:04.874Z,2.27
2019-06-27T13:25:34.640Z,2.60
2019-06-27T13:28:04.203Z,2.13
2019-06-27T13:30:33.802Z,3.47
2019-06-27T13:33:03.641Z,3.33
2019-06-27T13:35:33.119Z,4.63
2019-06-27T13:38:02.655Z,3.07
2019-06-27T13:40:32.115Z,3.43
2019-06-27T13:43:01.639Z,4.23
2019-06-27T13:45:31.097Z,2.90
2019-06-27T13:48:00.623Z,2.13
2019-06-27T13:50:30.119Z,1.60
2019-06-27T13:52:59.605Z,1.70
2019-06-27T13:55:29.170Z,2.83
2019-06-27T13:57:58.686Z,2.27
2019-06-27T14:00:43.936Z,3.63
2019-06-27T14:03:13.738Z,3.37
2019-06-27T14:05:43.298Z,3.60
2019-06-27T14:08:12.927Z,3.40
2019-06-27T14:10:42.577Z,3.40
2019-06-27T14:13:12.051Z,2.10
2019-06-27T14:15:41.622Z,3.07
2019-06-27T14:18:11.247Z,1.93
2019-06-27T14:20:40.780Z,2.73
2019-06-27T14:23:10.335Z,2.20
2019-06-27T14:25:39.889Z,2.90
2019-06-27T14:28:11.135Z,4.27
2019-06-27T14:30:40.623Z,3.27
2019-06-27T14:33:10.126Z,3.97
2019-06-27T14:35:39.725Z,3.10
2019-06-27T14:38:09.190Z,5.03
2019-06-27T14:40:38.813Z,3.47
2019-06-27T14:43:08.309Z,3.10
2019-06-27T14:45:37.843Z,3.90
2019-06-27T14:48:07.361Z,3.50
2019-06-27T14:50:37.374Z,2.43
2019-06-27T14:53:06.834Z,2.97
2019-06-27T14:55:36.292Z,3.33
2019-06-27T14:58:05.835Z,4.13
2019-06-27T15:00:35.453Z,2.33
2019-06-27T15:03:05.575Z,2.33
2019-06-27T15:05:35.170Z,4.13
2019-06-27T15:08:04.795Z,2.30
2019-06-27T15:10:34.239Z,3.53
2019-06-27T15:13:03.722Z,2.37
2019-06-27T15:15:33.184Z,3.37
2019-06-27T15:18:02.654Z,3.77
2019-06-27T15:20:32.228Z,3.33
2019-06-27T15:23:01.731Z,2.70
2019-06-27T15:25:31.217Z,2.87
2019-06-27T15:28:00.745Z,3.53
2019-06-27T15:30:30.205Z,3.03
2019-06-27T15:32:59.719Z,3.40
2019-06-27T15:35:29.141Z,5.80
2019-06-27T15:37:58.637Z,2.50
2019-06-27T15:40:28.157Z,4.03
2019-06-27T15:42:57.657Z,2.73
2019-06-27T15:45:27.312Z,2.87
2019-06-27T15:47:56.754Z,3.00
2019-06-27T15:50:26.259Z,2.93
2019-06-27T15:52:55.749Z,2.27
2019-06-27T15:55:25.214Z,2.50
2019-06-27T15:57:54.660Z,2.93
2019-06-27T16:00:24.275Z,3.13
2019-06-27T16:02:53.914Z,3.10
2019-06-27T16:05:23.431Z,3.93
2019-06-27T16:07:52.957Z,3.37
2019-06-27T16:10:22.638Z,4.70
2019-06-27T16:12:52.183Z,3.40
2019-06-27T16:15:21.804Z,3.10
2019-06-27T16:17:51.304Z,2.90
2019-06-27T16:20:21.241Z,3.50
2019-06-27T16:22:50.728Z,2.20
2019-06-27T16:25:20.401Z,2.60
2019-06-27T16:27:49.968Z,2.40
2019-06-27T16:30:19.993Z,2.53
2019-06-27T16:32:49.494Z,3.43
2019-06-27T16:35:19.055Z,4.57
2019-06-27T16:37:48.682Z,2.20
2019-06-27T16:40:20.254Z,3.17
2019-06-27T16:42:49.755Z,2.90
2019-06-27T16:45:19.872Z,2.57
2019-06-27T16:47:49.340Z,3.20
2019-06-27T16:50:19.332Z,2.07
2019-06-27T16:52:48.813Z,2.97
2019-06-27T16:55:18.509Z,2.93
2019-06-27T16:57:48.204Z,4.03
2019-06-27T17:00:18.886Z,1.90
2019-06-27T17:02:48.406Z,2.27
2019-06-27T17:05:18.055Z,2.13
2019-06-27T17:07:47.603Z,2.47
2019-06-27T17:10:18.400Z,2.15
2019-06-27T17:12:47.976Z,1.70
2019-06-27T17:15:17.750Z,2.10
2019-06-27T17:17:47.236Z,1.93
2019-06-27T17:20:17.498Z,1.65
2019-06-27T17:22:46.983Z,1.93
2019-06-27T17:25:16.683Z,3.63
2019-06-27T17:27:46.157Z,1.30
2019-06-27T17:30:18.431Z,1.82
2019-06-27T17:32:48.053Z,1.95
2019-06-27T17:35:17.575Z,1.90
2019-06-27T17:37:47.071Z,1.75
2019-06-27T17:40:16.980Z,1.67
2019-06-27T17:42:46.525Z,3.37
2019-06-27T17:45:16.086Z,3.12
2019-06-27T17:47:45.657Z,2.08
2019-06-27T17:50:15.504Z,3.55
2019-06-27T17:52:45.083Z,1.42
2019-06-27T17:55:14.714Z,2.52
2019-06-27T17:57:47.101Z,1.60
2019-06-27T18:00:16.715Z,1.80
2019-06-27T18:02:46.275Z,2.72
2019-06-27T18:05:18.274Z,1.80
2019-06-27T18:07:47.295Z,2.00
2019-06-27T18:10:17.812Z,3.67
2019-06-27T18:12:47.377Z,2.15
2019-06-27T18:15:17.503Z,1.70
2019-06-27T18:17:47.131Z,2.52
2019-06-27T18:20:16.835Z,2.17
2019-06-27T18:22:46.313Z,1.73
2019-06-27T18:25:16.136Z,2.47
2019-06-27T18:27:45.701Z,2.23
2019-06-27T18:30:16.968Z,2.57
2019-06-27T18:32:46.482Z,2.07
2019-06-27T18:35:16.060Z,1.70
2019-06-27T18:37:45.704Z,2.27
2019-06-27T18:40:15.878Z,1.60
2019-06-27T18:42:45.436Z,2.10
2019-06-27T18:45:15.158Z,1.20
2019-06-27T18:47:44.652Z,3.10
2019-06-27T18:50:15.584Z,3.13
2019-06-27T18:52:45.062Z,2.60
2019-06-27T18:55:14.681Z,2.17
2019-06-27T18:57:44.224Z,1.60
2019-06-27T19:00:14.360Z,2.47
2019-06-27T19:02:43.981Z,2.93
2019-06-27T19:05:15.112Z,3.43
2019-06-27T19:07:46.271Z,1.90
2019-06-27T19:10:17.784Z,2.30
2019-06-27T19:12:47.301Z,1.73
2019-06-27T19:15:17.313Z,1.97
2019-06-27T19:17:46.890Z,2.57
2019-06-27T19:20:21.534Z,2.37
2019-06-27T19:23:08.526Z,2.00
2019-06-27T19:25:39.692Z,2.03
2019-06-27T19:28:10.799Z,4.73
2019-06-27T19:30:40.394Z,2.93
2019-06-27T19:33:09.880Z,2.17
2019-06-27T19:35:39.425Z,2.27
2019-06-27T19:38:09.015Z,2.03
2019-06-27T19:40:38.621Z,2.40
2019-06-27T19:43:08.216Z,1.93
2019-06-27T19:45:37.696Z,2.10
2019-06-27T19:48:07.382Z,1.87
2019-06-27T19:50:36.892Z,2.83
2019-06-27T19:53:06.516Z,2.10
2019-06-27T19:55:37.626Z,2.60
2019-06-27T19:58:07.276Z,2.03
2019-06-27T20:00:36.841Z,3.67
2019-06-27T20:03:06.466Z,2.73
2019-06-27T20:05:36.115Z,2.33
2019-06-27T20:08:18.345Z,3.00
2019-06-27T20:10:36.854Z,3.10
2019-06-27T20:13:06.784Z,3.07
2019-06-27T20:15:36.344Z,3.73
2019-06-27T20:18:05.845Z,2.33
2019-06-27T20:20:35.441Z,3.07
2019-06-27T20:23:05.038Z,1.90
2019-06-27T20:25:34.518Z,1.70
2019-06-27T20:28:04.125Z,1.97
2019-06-27T20:30:53.081Z,1.50
2019-06-27T20:33:22.694Z,3.33
2019-06-27T20:35:52.268Z,1.40
2019-06-27T20:38:34.331Z,1.90
2019-06-27T20:40:53.210Z,1.87
2019-06-27T20:43:22.761Z,4.83
2019-06-27T20:45:52.235Z,1.77
2019-06-27T20:48:21.719Z,3.20
2019-06-27T20:50:51.336Z,1.67
2019-06-27T20:53:20.841Z,3.83
2019-06-27T20:55:50.331Z,3.37
2019-06-27T20:58:19.813Z,2.00
2019-06-27T21:00:49.423Z,1.73
2019-06-27T21:03:18.975Z,1.50
2019-06-27T21:05:48.504Z,2.17
2019-06-27T21:08:18.097Z,3.33
2019-06-27T21:10:47.578Z,2.40
2019-06-27T21:13:17.158Z,1.67
2019-06-27T21:15:50.171Z,3.20
2019-06-27T21:18:17.877Z,2.63
2019-06-27T21:20:47.490Z,3.50
2019-06-27T21:23:16.989Z,3.23
2019-06-27T21:25:46.549Z,1.97
2019-06-27T21:28:16.028Z,3.27
2019-06-27T21:30:46.435Z,2.20
2019-06-27T21:33:15.898Z,3.57
2019-06-27T21:35:45.412Z,1.80
2019-06-27T21:38:14.904Z,1.57
2019-06-27T21:40:44.384Z,3.43
2019-06-27T21:43:14.008Z,3.47
2019-06-27T21:45:43.470Z,1.50
2019-06-27T21:48:12.962Z,2.90
2019-06-27T21:50:42.461Z,2.43
2019-06-27T21:53:11.924Z,4.50
2019-06-27T21:55:41.386Z,4.10
2019-06-27T21:58:10.880Z,2.20
2019-06-27T22:00:40.923Z,1.60
2019-06-27T22:03:10.647Z,2.07
2019-06-27T22:05:40.635Z,2.83
2019-06-27T22:08:10.219Z,1.40
2019-06-27T22:10:39.857Z,1.37
2019-06-27T22:13:09.364Z,2.93
2019-06-27T22:15:38.913Z,1.80
2019-06-27T22:18:08.479Z,2.47
2019-06-27T22:20:39.699Z,3.43
2019-06-27T22:23:09.355Z,1.70
2019-06-27T22:25:40.871Z,1.60
2019-06-27T22:28:10.202Z,1.67
2019-06-27T22:30:39.739Z,2.10
2019-06-27T22:33:09.248Z,1.83
2019-06-27T22:35:38.717Z,1.40
2019-06-27T22:38:25.604Z,2.17
2019-06-27T22:41:14.090Z,2.70
2019-06-27T22:44:01.293Z,1.40
2019-06-27T22:46:48.912Z,2.30
2019-06-27T22:49:18.570Z,1.20
2019-06-27T22:51:56.663Z,1.50
2019-06-27T22:54:27.786Z,1.37
2019-06-27T22:56:57.329Z,2.10
2019-06-27T22:59:26.814Z,1.40
2019-06-27T23:01:56.291Z,1.70
2019-06-27T23:04:25.834Z,1.57
2019-06-27T23:06:55.375Z,1.73
2019-06-27T23:09:24.943Z,3.10
2019-06-27T23:11:54.480Z,2.53
2019-06-27T23:14:24.029Z,1.90
2019-06-27T23:16:53.511Z,1.63
2019-06-27T23:19:23.091Z,1.87
2019-06-27T23:21:52.571Z,2.00
2019-06-27T23:24:22.034Z,1.40
2019-06-27T23:26:51.522Z,1.87
2019-06-27T23:29:21.077Z,3.40
2019-06-27T23:31:50.648Z,1.43
2019-06-27T23:34:20.121Z,1.13
2019-06-27T23:36:49.682Z,2.37
2019-06-27T23:39:19.140Z,2.10
2019-06-27T23:41:48.676Z,1.90
2019-06-27T23:44:18.237Z,1.30
2019-06-27T23:46:47.775Z,1.70
2019-06-27T23:49:17.257Z,1.83
2019-06-27T23:51:46.721Z,2.53
2019-06-27T23:54:16.257Z,1.33
2019-06-27T23:56:45.729Z,2.00
2019-06-27T23:59:15.219Z,1.80
